createdAt,value
2022-09-06T00:03:54.285Z,5.80
2022-09-06T00:09:24.281Z,6.60
2022-09-06T00:14:26.137Z,6.10
2022-09-06T00:19:27.895Z,6.40
2022-09-06T00:24:29.741Z,6.20
2022-09-06T00:29:31.856Z,5.50
2022-09-06T00:34:33.957Z,5.80
2022-09-06T00:39:35.816Z,5.10
2022-09-06T00:44:38.527Z,4.80
2022-09-06T00:49:47.574Z,4.60
2022-09-06T00:54:50.286Z,4.10
2022-09-06T00:59:52.146Z,4.40
2022-09-06T01:04:54.975Z,4.60
2022-09-06T01:10:15.370Z,3.50
2022-09-06T01:15:35.959Z,3.80
2022-09-06T01:20:42.605Z,4.30
2022-09-06T01:26:10.845Z,4.00
2022-09-06T01:31:19.046Z,3.40
2022-09-06T01:36:54.366Z,4.10
2022-09-06T01:42:22.170Z,3.30
2022-09-06T01:47:30.256Z,3.90
2022-09-06T01:52:50.657Z,3.80
2022-09-06T01:58:24.214Z,3.60
2022-09-06T02:03:56.906Z,3.80
2022-09-06T02:09:07.675Z,3.60
2022-09-06T02:14:11.914Z,3.80
2022-09-06T02:19:37.098Z,3.70
2022-09-06T02:24:40.784Z,4.30
2022-09-06T02:29:42.596Z,4.40
2022-09-06T02:34:46.229Z,4.00
2022-09-06T02:39:53.699Z,4.90
2022-09-06T02:45:02.547Z,4.60
2022-09-06T02:50:04.354Z,4.40
2022-09-06T02:55:19.194Z,4.30
2022-09-06T03:00:34.727Z,5.10
2022-09-06T03:05:36.774Z,4.90
2022-09-06T03:10:38.518Z,4.90
2022-09-06T03:15:40.296Z,5.40
2022-09-06T03:20:42.036Z,4.80
2022-09-06T03:25:44.716Z,5.20
2022-09-06T03:30:47.372Z,6.20
2022-09-06T03:35:50.416Z,4.90
2022-09-06T03:40:52.979Z,5.50
2022-09-06T03:45:57.134Z,4.50
2022-09-06T03:50:59.205Z,5.50
2022-09-06T03:56:00.933Z,5.30
2022-09-06T04:01:04.997Z,5.40
2022-09-06T04:06:07.457Z,5.30
2022-09-06T04:11:09.253Z,15.30
2022-09-06T04:16:11.410Z,12.10
2022-09-06T04:21:13.171Z,5.30
2022-09-06T04:26:15.113Z,5.90
2022-09-06T04:31:17.192Z,6.00
2022-09-06T04:36:19.211Z,5.30
2022-09-06T04:41:22.481Z,4.50
2022-09-06T04:46:25.410Z,6.40
2022-09-06T04:51:27.762Z,6.90
2022-09-06T04:56:30.257Z,5.80
2022-09-06T05:01:32.176Z,8.10
2022-09-06T05:06:34.246Z,6.20
2022-09-06T05:11:36.074Z,5.40
2022-09-06T05:16:37.942Z,4.20
2022-09-06T05:21:39.892Z,4.50
2022-09-06T05:26:42.000Z,4.60
2022-09-06T05:31:43.922Z,4.60
2022-09-06T05:36:46.320Z,6.20
2022-09-06T05:41:48.109Z,5.50
2022-09-06T05:46:49.811Z,5.10
2022-09-06T05:51:52.273Z,4.60
2022-09-06T05:56:54.057Z,4.40
2022-09-06T06:01:55.834Z,4.60
2022-09-06T06:06:57.601Z,5.60
2022-09-06T06:11:59.308Z,7.80
2022-09-06T06:17:02.019Z,4.80
2022-09-06T06:22:03.868Z,4.50
2022-09-06T06:27:05.583Z,4.90
2022-09-06T06:32:07.292Z,4.30
2022-09-06T06:37:09.129Z,5.70
2022-09-06T06:42:11.024Z,4.80
2022-09-06T06:47:16.764Z,4.60
2022-09-06T06:52:18.549Z,6.80
2022-09-06T06:57:20.378Z,5.00
2022-09-06T07:02:22.321Z,5.20
2022-09-06T07:07:32.285Z,5.60
2022-09-06T07:12:35.747Z,5.40
2022-09-06T07:17:37.788Z,5.00
2022-09-06T07:22:54.442Z,4.30
2022-09-06T07:27:59.033Z,5.40
2022-09-06T07:33:01.575Z,5.00
2022-09-06T07:38:04.868Z,5.80
2022-09-06T07:43:06.801Z,6.70
2022-09-06T07:48:08.629Z,7.40
2022-09-06T07:53:15.110Z,10.90
2022-09-06T07:58:19.396Z,8.10
2022-09-06T08:03:21.265Z,7.10
2022-09-06T08:14:00.217Z,5.30
2022-09-06T08:19:03.907Z,4.90
2022-09-06T08:24:06.887Z,4.60
2022-09-06T08:29:09.224Z,5.80
2022-09-06T08:34:12.838Z,4.30
2022-09-06T08:39:21.183Z,4.60
2022-09-06T08:44:55.360Z,4.80
2022-09-06T08:50:13.160Z,5.70
2022-09-06T08:55:47.491Z,4.60
2022-09-06T09:01:07.671Z,5.00
2022-09-06T09:06:10.447Z,4.30
2022-09-06T09:11:17.560Z,4.40
2022-09-06T09:16:33.273Z,5.40
2022-09-06T09:21:48.580Z,4.50
2022-09-06T09:27:05.699Z,4.40
2022-09-06T09:32:08.379Z,5.00
2022-09-06T09:42:35.729Z,3.90
2022-09-06T09:47:37.426Z,4.30
2022-09-06T09:52:43.472Z,4.00
2022-09-06T09:57:47.242Z,4.30
2022-09-06T10:02:50.070Z,4.10
2022-09-06T10:07:51.986Z,3.70
2022-09-06T10:13:12.459Z,3.70
2022-09-06T10:18:29.308Z,3.80
2022-09-06T10:29:09.792Z,3.00
2022-09-06T10:34:17.221Z,3.60
2022-09-06T10:39:21.787Z,3.40
2022-09-06T10:44:26.293Z,3.30
2022-09-06T10:49:28.689Z,3.90
2022-09-06T10:54:31.080Z,4.00
2022-09-06T10:59:42.121Z,5.10
2022-09-06T11:10:27.679Z,3.80
2022-09-06T11:15:33.099Z,3.00
2022-09-06T11:20:53.712Z,3.50
2022-09-06T11:26:19.348Z,3.30
2022-09-06T11:41:49.756Z,3.70
2022-09-06T11:46:51.489Z,3.10
2022-09-06T11:51:53.835Z,2.60
2022-09-06T11:57:03.640Z,2.60
2022-09-06T12:02:07.031Z,2.50
2022-09-06T12:07:11.172Z,2.80
2022-09-06T12:12:32.837Z,2.70
2022-09-06T12:17:46.717Z,3.00
2022-09-06T12:22:48.632Z,3.00
2022-09-06T12:27:52.621Z,2.60
2022-09-06T12:32:54.416Z,2.80
2022-09-06T12:38:00.162Z,3.60
2022-09-06T12:43:03.507Z,2.70
2022-09-06T12:48:09.522Z,3.20
2022-09-06T12:53:24.556Z,2.70
2022-09-06T12:58:29.622Z,3.00
2022-09-06T13:03:40.649Z,2.70
2022-09-06T13:08:45.617Z,2.80
2022-09-06T13:13:49.102Z,3.30
2022-09-06T13:18:51.011Z,2.90
2022-09-06T13:23:52.982Z,3.30
2022-09-06T13:28:54.658Z,2.70
2022-09-06T18:21:31.098Z,11.80
2022-09-06T18:26:33.328Z,18.60
2022-09-06T18:31:35.750Z,12.40
2022-09-06T18:36:38.249Z,7.90
2022-09-06T18:41:58.457Z,46.40
2022-09-06T18:47:06.799Z,28.80
2022-09-06T18:52:08.676Z,35.60
2022-09-06T18:57:11.239Z,31.70
2022-09-06T19:02:13.150Z,45.10
2022-09-06T19:16:19.800Z,10.80
2022-09-06T19:21:24.790Z,8.80
2022-09-06T19:26:29.303Z,7.30
2022-09-06T19:31:42.333Z,7.90
2022-09-06T19:36:45.098Z,8.30
2022-09-06T19:41:47.799Z,10.50
2022-09-06T19:46:49.868Z,7.50
2022-09-06T19:51:53.124Z,9.10
2022-09-06T19:56:54.828Z,7.60
2022-09-06T20:01:56.886Z,7.60
2022-09-06T20:06:58.722Z,9.20
2022-09-06T20:12:00.432Z,7.40
2022-09-06T20:17:22.749Z,6.90
2022-09-06T20:22:24.205Z,8.20
2022-09-06T20:27:25.954Z,6.80
2022-09-06T20:32:49.332Z,6.20
2022-09-06T20:38:04.689Z,6.10
2022-09-06T20:43:12.807Z,6.00
2022-09-06T20:48:14.560Z,6.00
2022-09-06T20:53:16.308Z,5.00
2022-09-06T20:58:18.079Z,4.90
2022-09-06T21:03:20.546Z,6.10
2022-09-06T21:08:41.875Z,5.80
2022-09-06T21:14:05.293Z,5.30
2022-09-06T21:19:12.526Z,5.30
2022-09-06T21:24:14.829Z,5.50
2022-09-06T21:29:16.595Z,5.50
2022-09-06T21:34:18.454Z,5.40
2022-09-06T21:39:20.180Z,6.20
2022-09-06T21:44:22.077Z,5.10
2022-09-06T21:49:23.788Z,5.30
2022-09-06T21:54:25.624Z,5.40
2022-09-06T21:59:47.288Z,5.40
2022-09-06T22:04:59.532Z,5.40
2022-09-06T22:10:01.272Z,5.10
2022-09-06T22:15:03.326Z,4.90
2022-09-06T22:20:06.646Z,5.40
2022-09-06T22:25:08.652Z,3.90
2022-09-06T22:30:11.135Z,5.10
2022-09-06T22:35:12.994Z,5.40
2022-09-06T22:40:14.937Z,5.10
2022-09-06T22:45:19.839Z,4.60
2022-09-06T22:50:21.618Z,5.00
2022-09-06T22:55:24.245Z,5.10
2022-09-06T23:00:27.473Z,4.40
2022-09-06T23:05:31.401Z,5.00
2022-09-06T23:10:33.224Z,4.60
2022-09-06T23:15:36.453Z,5.50
2022-09-06T23:20:38.301Z,4.50
2022-09-06T23:25:40.356Z,5.00
2022-09-06T23:30:42.084Z,4.30
2022-09-06T23:35:50.285Z,4.60
2022-09-06T23:40:52.152Z,4.60
2022-09-06T23:45:53.960Z,4.60
2022-09-06T23:50:55.707Z,4.40
2022-09-06T23:55:57.781Z,4.40
